sensor_id;sensor_type;location;lat;lon;timestamp;pressure;altitude;pressure_sealevel;temperature;humidity
18795;BME280;29610;49.022;12.114;2022-07-29T00:01:43;97565.44;;;21.95;100.00
18795;BME280;29610;49.022;12.114;2022-07-29T00:04:15;97556.38;;;21.84;100.00
18795;BME280;29610;49.022;12.114;2022-07-29T00:06:48;97556.78;;;21.89;100.00
18795;BME280;29610;49.022;12.114;2022-07-29T00:09:24;97555.56;;;21.94;100.00
18795;BME280;29610;49.022;12.114;2022-07-29T00:12:05;97568.56;;;22.14;100.00
18795;BME280;29610;49.022;12.114;2022-07-29T00:14:54;97562.63;;;22.09;100.00
18795;BME280;29610;49.022;12.114;2022-07-29T00:17:29;97548.78;;;22.12;100.00
18795;BME280;29610;49.022;12.114;2022-07-29T00:20:06;97546.84;;;22.13;100.00
18795;BME280;29610;49.022;12.114;2022-07-29T00:22:37;97546.78;;;22.30;100.00
18795;BME280;29610;49.022;12.114;2022-07-29T00:25:20;97550.34;;;22.27;100.00
18795;BME280;29610;49.022;12.114;2022-07-29T00:27:53;97543.19;;;22.33;100.00
18795;BME280;29610;49.022;12.114;2022-07-29T00:30:23;97540.03;;;22.28;100.00
18795;BME280;29610;49.022;12.114;2022-07-29T00:32:58;97547.94;;;22.29;100.00
18795;BME280;29610;49.022;12.114;2022-07-29T00:35:36;97541.25;;;22.20;100.00
18795;BME280;29610;49.022;12.114;2022-07-29T00:38:19;97535.69;;;22.27;100.00
18795;BME280;29610;49.022;12.114;2022-07-29T00:40:49;97539.22;;;22.38;100.00
18795;BME280;29610;49.022;12.114;2022-07-29T00:43:18;97538.41;;;22.48;100.00
18795;BME280;29610;49.022;12.114;2022-07-29T00:45:47;97545.50;;;22.52;100.00
18795;BME280;29610;49.022;12.114;2022-07-29T00:48:15;97543.94;;;22.48;100.00
18795;BME280;29610;49.022;12.114;2022-07-29T00:50:49;97541.22;;;22.34;100.00
18795;BME280;29610;49.022;12.114;2022-07-29T00:53:20;97531.38;;;22.22;100.00
18795;BME280;29610;49.022;12.114;2022-07-29T00:55:49;97537.38;;;22.00;100.00
18795;BME280;29610;49.022;12.114;2022-07-29T00:58:18;97536.16;;;22.08;100.00
18795;BME280;29610;49.022;12.114;2022-07-29T01:00:48;97534.97;;;22.09;100.00
18795;BME280;29610;49.022;12.114;2022-07-29T01:03:22;97544.47;;;22.08;100.00
18795;BME280;29610;49.022;12.114;2022-07-29T01:05:54;97538.13;;;22.04;100.00
18795;BME280;29610;49.022;12.114;2022-07-29T01:08:25;97535.00;;;22.02;100.00
18795;BME280;29610;49.022;12.114;2022-07-29T01:10:58;97526.31;;;21.93;100.00
18795;BME280;29610;49.022;12.114;2022-07-29T01:13:29;97533.06;;;21.56;100.00
18795;BME280;29610;49.022;12.114;2022-07-29T01:16:13;97533.06;;;21.56;100.00
18795;BME280;29610;49.022;12.114;2022-07-29T01:18:49;97526.75;;;21.63;100.00
18795;BME280;29610;49.022;12.114;2022-07-29T01:21:48;97518.84;;;21.54;100.00
18795;BME280;29610;49.022;12.114;2022-07-29T01:25:01;97522.41;;;21.58;100.00
18795;BME280;29610;49.022;12.114;2022-07-29T01:27:47;97514.91;;;21.27;100.00
18795;BME280;29610;49.022;12.114;2022-07-29T01:30:24;97513.31;;;21.33;100.00
18795;BME280;29610;49.022;12.114;2022-07-29T01:32:59;97513.72;;;21.04;100.00
18795;BME280;29610;49.022;12.114;2022-07-29T01:35:38;97514.13;;;21.23;100.00
18795;BME280;29610;49.022;12.114;2022-07-29T01:38:12;97510.19;;;21.17;100.00
18795;BME280;29610;49.022;12.114;2022-07-29T01:40:48;97512.16;;;21.17;100.00
18795;BME280;29610;49.022;12.114;2022-07-29T01:43:25;97506.59;;;20.96;100.00
18795;BME280;29610;49.022;12.114;2022-07-29T01:46:02;97499.50;;;20.98;100.00
18795;BME280;29610;49.022;12.114;2022-07-29T01:48:46;97499.09;;;20.93;100.00
18795;BME280;29610;49.022;12.114;2022-07-29T01:51:20;97499.88;;;20.90;100.00
18795;BME280;29610;49.022;12.114;2022-07-29T01:54:02;97493.97;;;20.98;100.00
18795;BME280;29610;49.022;12.114;2022-07-29T01:56:34;97489.19;;;20.78;100.00
18795;BME280;29610;49.022;12.114;2022-07-29T01:59:07;97489.59;;;20.69;100.00
18795;BME280;29610;49.022;12.114;2022-07-29T02:01:41;97479.75;;;20.82;100.00
18795;BME280;29610;49.022;12.114;2022-07-29T02:04:13;97477.38;;;20.91;100.00
18795;BME280;29610;49.022;12.114;2022-07-29T02:07:02;97478.94;;;20.92;100.00
18795;BME280;29610;49.022;12.114;2022-07-29T02:09:36;97479.31;;;20.70;100.00
18795;BME280;29610;49.022;12.114;2022-07-29T02:12:11;97484.00;;;20.38;100.00
18795;BME280;29610;49.022;12.114;2022-07-29T02:14:51;97487.16;;;20.47;100.00
18795;BME280;29610;49.022;12.114;2022-07-29T02:17:50;97494.25;;;20.37;100.00
18795;BME280;29610;49.022;12.114;2022-07-29T02:21:15;97486.34;;;20.43;100.00
18795;BME280;29610;49.022;12.114;2022-07-29T02:24:16;97486.34;;;20.43;100.00
18795;BME280;29610;49.022;12.114;2022-07-29T02:27:00;97486.38;;;20.39;100.00
18795;BME280;29610;49.022;12.114;2022-07-29T02:29:31;97489.13;;;20.39;100.00
18795;BME280;29610;49.022;12.114;2022-07-29T02:32:02;97490.59;;;20.15;100.00
18795;BME280;29610;49.022;12.114;2022-07-29T02:34:34;97487.53;;;20.31;100.00
18795;BME280;29610;49.022;12.114;2022-07-29T02:37:12;97493.34;;;20.12;100.00
18795;BME280;29610;49.022;12.114;2022-07-29T02:39:46;97494.59;;;20.21;100.00
18795;BME280;29610;49.022;12.114;2022-07-29T02:42:29;97498.44;;;20.10;100.00
18795;BME280;29610;49.022;12.114;2022-07-29T02:45:13;97495.22;;;20.01;100.00
18795;BME280;29610;49.022;12.114;2022-07-29T02:47:46;97500.78;;;20.08;100.00
18795;BME280;29610;49.022;12.114;2022-07-29T02:50:22;97491.41;;;20.19;100.00
18795;BME280;29610;49.022;12.114;2022-07-29T02:53:02;97495.34;;;20.15;100.00
18795;BME280;29610;49.022;12.114;2022-07-29T02:55:39;97495.78;;;20.34;100.00
18795;BME280;29610;49.022;12.114;2022-07-29T02:58:18;97494.97;;;20.20;100.00
18795;BME280;29610;49.022;12.114;2022-07-29T03:00:51;97493.41;;;20.22;100.00
18795;BME280;29610;49.022;12.114;2022-07-29T03:03:21;97490.28;;;20.34;100.00
18795;BME280;29610;49.022;12.114;2022-07-29T03:05:54;97489.94;;;20.54;100.00
18795;BME280;29610;49.022;12.114;2022-07-29T03:08:24;97496.66;;;20.60;100.00
18795;BME280;29610;49.022;12.114;2022-07-29T03:10:53;97493.09;;;20.59;100.00
18795;BME280;29610;49.022;12.114;2022-07-29T03:13:24;97485.16;;;20.37;100.00
18795;BME280;29610;49.022;12.114;2022-07-29T03:15:55;97487.53;;;20.31;100.00
18795;BME280;29610;49.022;12.114;2022-07-29T03:18:24;97495.41;;;20.36;100.00
18795;BME280;29610;49.022;12.114;2022-07-29T03:20:55;97489.53;;;20.38;100.00
18795;BME280;29610;49.022;12.114;2022-07-29T03:23:24;97498.19;;;20.40;100.00
18795;BME280;29610;49.022;12.114;2022-07-29T03:26:01;97495.41;;;20.33;100.00
18795;BME280;29610;49.022;12.114;2022-07-29T03:28:37;97491.88;;;20.36;100.00
18795;BME280;29610;49.022;12.114;2022-07-29T03:31:11;97494.63;;;20.36;100.00
18795;BME280;29610;49.022;12.114;2022-07-29T03:33:40;97494.56;;;20.18;100.00
18795;BME280;29610;49.022;12.114;2022-07-29T03:36:16;97494.19;;;20.30;100.00
18795;BME280;29610;49.022;12.114;2022-07-29T03:38:46;97483.59;;;20.43;100.00
18795;BME280;29610;49.022;12.114;2022-07-29T03:41:18;97484.81;;;20.49;100.00
18795;BME280;29610;49.022;12.114;2022-07-29T03:43:51;97488.31;;;20.46;100.00
18795;BME280;29610;49.022;12.114;2022-07-29T03:46:22;97490.28;;;20.31;100.00
18795;BME280;29610;49.022;12.114;2022-07-29T03:48:58;97485.53;;;20.24;100.00
18795;BME280;29610;49.022;12.114;2022-07-29T03:51:30;97493.41;;;20.26;100.00
18795;BME280;29610;49.022;12.114;2022-07-29T03:54:00;97493.44;;;20.29;100.00
18795;BME280;29610;49.022;12.114;2022-07-29T03:56:40;97494.63;;;20.43;100.00
18795;BME280;29610;49.022;12.114;2022-07-29T03:59:15;97503.69;;;20.36;100.00
18795;BME280;29610;49.022;12.114;2022-07-29T04:01:47;97501.78;;;20.47;100.00
18795;BME280;29610;49.022;12.114;2022-07-29T04:04:17;97517.59;;;20.64;100.00
18795;BME280;29610;49.022;12.114;2022-07-29T04:06:48;97508.44;;;20.43;100.00
18795;BME280;29610;49.022;12.114;2022-07-29T04:09:16;97508.06;;;20.51;100.00
18795;BME280;29610;49.022;12.114;2022-07-29T04:11:45;97509.25;;;20.54;100.00
18795;BME280;29610;49.022;12.114;2022-07-29T04:14:30;97514.44;;;20.69;100.00
18795;BME280;29610;49.022;12.114;2022-07-29T04:16:59;97514.84;;;20.89;100.00
18795;BME280;29610;49.022;12.114;2022-07-29T04:19:28;97521.59;;;21.02;100.00
18795;BME280;29610;49.022;12.114;2022-07-29T04:21:58;97526.34;;;21.08;100.00
18795;BME280;29610;49.022;12.114;2022-07-29T04:24:28;97531.09;;;21.15;100.00
18795;BME280;29610;49.022;12.114;2022-07-29T04:26:56;97533.88;;;21.18;100.00
18795;BME280;29610;49.022;12.114;2022-07-29T04:29:25;97529.94;;;21.12;100.00
18795;BME280;29610;49.022;12.114;2022-07-29T04:31:53;97538.22;;;21.09;100.00
18795;BME280;29610;49.022;12.114;2022-07-29T04:34:21;97525.19;;;21.09;100.00
18795;BME280;29610;49.022;12.114;2022-07-29T04:36:54;97527.13;;;21.16;100.00
18795;BME280;29610;49.022;12.114;2022-07-29T04:39:25;97539.00;;;21.23;100.00
18795;BME280;29610;49.022;12.114;2022-07-29T04:41:56;97535.06;;;21.28;100.00
18795;BME280;29610;49.022;12.114;2022-07-29T04:44:25;97540.19;;;21.26;100.00
18795;BME280;29610;49.022;12.114;2022-07-29T04:46:56;97545.34;;;21.20;100.00
18795;BME280;29610;49.022;12.114;2022-07-29T04:49:25;97547.28;;;21.30;100.00
18795;BME280;29610;49.022;12.114;2022-07-29T04:51:53;97542.56;;;21.27;100.00
18795;BME280;29610;49.022;12.114;2022-07-29T04:54:23;97546.50;;;21.26;100.00
18795;BME280;29610;49.022;12.114;2022-07-29T04:56:52;97546.13;;;21.14;100.00
18795;BME280;29610;49.022;12.114;2022-07-29T04:59:21;97529.88;;;20.98;100.00
18795;BME280;29610;49.022;12.114;2022-07-29T05:01:49;97548.38;;;20.80;100.00
18795;BME280;29610;49.022;12.114;2022-07-29T05:04:18;97547.63;;;20.87;100.00
18795;BME280;29610;49.022;12.114;2022-07-29T05:06:47;97542.09;;;20.83;100.00
18795;BME280;29610;49.022;12.114;2022-07-29T05:09:16;97535.41;;;20.95;100.00
18795;BME280;29610;49.022;12.114;2022-07-29T05:11:45;97548.84;;;21.03;100.00
18795;BME280;29610;49.022;12.114;2022-07-29T05:14:15;97548.47;;;20.98;100.00
18795;BME280;29610;49.022;12.114;2022-07-29T05:16:44;97552.00;;;21.16;100.00
18795;BME280;29610;49.022;12.114;2022-07-29T05:19:12;97555.56;;;21.13;100.00
18795;BME280;29610;49.022;12.114;2022-07-29T05:21:41;97562.28;;;21.26;100.00
18795;BME280;29610;49.022;12.114;2022-07-29T05:24:10;97554.81;;;21.26;100.00
18795;BME280;29610;49.022;12.114;2022-07-29T05:26:39;97550.06;;;21.30;100.00
18795;BME280;29610;49.022;12.114;2022-07-29T05:29:09;97544.13;;;21.25;100.00
18795;BME280;29610;49.022;12.114;2022-07-29T05:31:58;97549.19;;;20.88;100.00
18795;BME280;29610;49.022;12.114;2022-07-29T05:34:26;97552.41;;;21.04;100.00
18795;BME280;29610;49.022;12.114;2022-07-29T05:36:55;97553.22;;;21.22;100.00
18795;BME280;29610;49.022;12.114;2022-07-29T05:39:24;97559.53;;;21.29;100.00
18795;BME280;29610;49.022;12.114;2022-07-29T05:42:12;97555.19;;;21.25;100.00
18795;BME280;29610;49.022;12.114;2022-07-29T05:44:42;97548.88;;;21.10;100.00
18795;BME280;29610;49.022;12.114;2022-07-29T05:47:10;97560.72;;;21.18;100.00
18795;BME280;29610;49.022;12.114;2022-07-29T05:49:39;97561.50;;;21.32;100.00
18795;BME280;29610;49.022;12.114;2022-07-29T05:52:08;97565.47;;;21.38;100.00
18795;BME280;29610;49.022;12.114;2022-07-29T05:54:37;97566.66;;;21.37;100.00
18795;BME280;29610;49.022;12.114;2022-07-29T05:57:06;97552.44;;;21.42;100.00
18795;BME280;29610;49.022;12.114;2022-07-29T05:59:36;97564.28;;;21.50;100.00
18795;BME280;29610;49.022;12.114;2022-07-29T06:02:06;97565.06;;;21.57;100.00
18795;BME280;29610;49.022;12.114;2022-07-29T06:04:34;97559.16;;;21.52;100.00
18795;BME280;29610;49.022;12.114;2022-07-29T06:07:04;97557.97;;;21.46;100.00
18795;BME280;29610;49.022;12.114;2022-07-29T06:09:32;97561.50;;;21.46;100.00
18795;BME280;29610;49.022;12.114;2022-07-29T06:12:03;97557.16;;;21.59;100.00
18795;BME280;29610;49.022;12.114;2022-07-29T06:14:32;97554.81;;;21.79;100.00
18795;BME280;29610;49.022;12.114;2022-07-29T06:17:00;97555.56;;;21.90;100.00
18795;BME280;29610;49.022;12.114;2022-07-29T06:19:30;97553.16;;;22.03;100.00
18795;BME280;29610;49.022;12.114;2022-07-29T06:21:59;97555.94;;;22.06;100.00
18795;BME280;29610;49.022;12.114;2022-07-29T06:24:27;97554.69;;;22.25;100.00
18795;BME280;29610;49.022;12.114;2022-07-29T06:26:56;97557.06;;;22.26;100.00
18795;BME280;29610;49.022;12.114;2022-07-29T06:29:28;97560.69;;;22.06;100.00
18795;BME280;29610;49.022;12.114;2022-07-29T06:31:56;97559.47;;;22.10;100.00
18795;BME280;29610;49.022;12.114;2022-07-29T06:34:25;97555.88;;;22.24;100.00
18795;BME280;29610;49.022;12.114;2022-07-29T06:36:55;97558.31;;;22.11;100.00
18795;BME280;29610;49.022;12.114;2022-07-29T06:39:23;97564.28;;;21.82;100.00
18795;BME280;29610;49.022;12.114;2022-07-29T06:41:52;97554.81;;;21.65;100.00
18795;BME280;29610;49.022;12.114;2022-07-29T06:44:24;97558.75;;;21.92;100.00
18795;BME280;29610;49.022;12.114;2022-07-29T06:46:52;97569.44;;;21.80;100.00
18795;BME280;29610;49.022;12.114;2022-07-29T06:49:22;97567.81;;;21.96;100.00
18795;BME280;29610;49.022;12.114;2022-07-29T06:51:51;97563.34;;;22.37;100.00
18795;BME280;29610;49.022;12.114;2022-07-29T06:54:21;97560.91;;;22.60;100.00
18795;BME280;29610;49.022;12.114;2022-07-29T06:56:50;97574.28;;;22.79;100.00
18795;BME280;29610;49.022;12.114;2022-07-29T06:59:18;97581.91;;;23.30;100.00
18795;BME280;29610;49.022;12.114;2022-07-29T07:01:58;97584.28;;;23.79;100.00
18795;BME280;29610;49.022;12.114;2022-07-29T07:04:26;97585.09;;;24.20;100.00
18795;BME280;29610;49.022;12.114;2022-07-29T07:06:55;97593.09;;;24.48;96.63
18795;BME280;29610;49.022;12.114;2022-07-29T07:09:25;97590.00;;;24.77;93.62
18795;BME280;29610;49.022;12.114;2022-07-29T07:12:07;97586.44;;;25.06;90.55
18795;BME280;29610;49.022;12.114;2022-07-29T07:14:36;97586.31;;;25.43;87.96
18795;BME280;29610;49.022;12.114;2022-07-29T07:17:04;97582.09;;;25.58;84.69
18795;BME280;29610;49.022;12.114;2022-07-29T07:19:34;97586.50;;;25.79;82.03
18795;BME280;29610;49.022;12.114;2022-07-29T07:22:02;97583.34;;;25.54;85.84
18795;BME280;29610;49.022;12.114;2022-07-29T07:24:33;97582.97;;;25.25;87.58
18795;BME280;29610;49.022;12.114;2022-07-29T07:27:01;97586.72;;;24.85;90.44
18795;BME280;29610;49.022;12.114;2022-07-29T07:29:30;97594.28;;;25.41;88.53
18795;BME280;29610;49.022;12.114;2022-07-29T07:31:58;97587.97;;;25.64;86.83
18795;BME280;29610;49.022;12.114;2022-07-29T07:34:27;97585.63;;;26.09;86.19
18795;BME280;29610;49.022;12.114;2022-07-29T07:36:57;97579.38;;;26.63;83.83
18795;BME280;29610;49.022;12.114;2022-07-29T07:39:25;97586.69;;;26.77;79.98
18795;BME280;29610;49.022;12.114;2022-07-29T07:41:55;97580.81;;;26.71;79.58
18795;BME280;29610;49.022;12.114;2022-07-29T07:44:24;97571.19;;;26.76;83.86
18795;BME280;29610;49.022;12.114;2022-07-29T07:46:52;97571.88;;;27.51;79.75
18795;BME280;29610;49.022;12.114;2022-07-29T07:49:21;97569.81;;;28.03;78.30
18795;BME280;29610;49.022;12.114;2022-07-29T07:51:50;97569.78;;;27.55;81.55
18795;BME280;29610;49.022;12.114;2022-07-29T07:54:19;97566.72;;;27.66;77.57
18795;BME280;29610;49.022;12.114;2022-07-29T07:56:48;97564.38;;;27.48;75.76
18795;BME280;29610;49.022;12.114;2022-07-29T07:59:20;97558.09;;;27.76;78.94
18795;BME280;29610;49.022;12.114;2022-07-29T08:01:50;97568.13;;;28.50;75.09
18795;BME280;29610;49.022;12.114;2022-07-29T08:04:23;97563.22;;;28.54;71.18
18795;BME280;29610;49.022;12.114;2022-07-29T08:06:56;97562.97;;;28.49;70.06
18795;BME280;29610;49.022;12.114;2022-07-29T08:09:26;97563.88;;;28.30;74.91
18795;BME280;29610;49.022;12.114;2022-07-29T08:11:59;97570.84;;;28.67;71.33
18795;BME280;29610;49.022;12.114;2022-07-29T08:14:31;97570.28;;;28.59;72.65
18795;BME280;29610;49.022;12.114;2022-07-29T08:17:03;97574.13;;;29.44;65.34
18795;BME280;29610;49.022;12.114;2022-07-29T08:19:32;97567.34;;;29.04;66.34
18795;BME280;29610;49.022;12.114;2022-07-29T08:22:00;97575.94;;;28.97;67.56
18795;BME280;29610;49.022;12.114;2022-07-29T08:24:29;97581.44;;;28.88;68.80
18795;BME280;29610;49.022;12.114;2022-07-29T08:27:19;97572.88;;;28.79;69.62
18795;BME280;29610;49.022;12.114;2022-07-29T08:30:10;97567.84;;;29.27;67.10
18795;BME280;29610;49.022;12.114;2022-07-29T08:32:39;97567.50;;;29.38;69.43
18795;BME280;29610;49.022;12.114;2022-07-29T08:35:21;97563.16;;;30.09;64.02
18795;BME280;29610;49.022;12.114;2022-07-29T08:37:51;97570.63;;;29.52;63.87
18795;BME280;29610;49.022;12.114;2022-07-29T08:40:20;97566.94;;;29.30;69.31
18795;BME280;29610;49.022;12.114;2022-07-29T08:43:04;97574.88;;;29.19;69.11
18795;BME280;29610;49.022;12.114;2022-07-29T08:45:44;97562.31;;;29.86;67.19
18795;BME280;29610;49.022;12.114;2022-07-29T08:48:17;97563.66;;;30.84;64.51
18795;BME280;29610;49.022;12.114;2022-07-29T08:50:48;97559.38;;;31.01;60.81
18795;BME280;29610;49.022;12.114;2022-07-29T08:53:18;97561.97;;;32.06;57.64
18795;BME280;29610;49.022;12.114;2022-07-29T08:55:49;97561.84;;;32.82;54.43
18795;BME280;29610;49.022;12.114;2022-07-29T08:58:19;97562.50;;;33.27;52.47
18795;BME280;29610;49.022;12.114;2022-07-29T09:00:54;97559.56;;;33.22;50.69
18795;BME280;29610;49.022;12.114;2022-07-29T09:03:30;97570.84;;;33.63;50.32
18795;BME280;29610;49.022;12.114;2022-07-29T09:05:59;97556.53;;;32.74;51.25
18795;BME280;29610;49.022;12.114;2022-07-29T09:08:35;97557.28;;;32.84;51.27
18795;BME280;29610;49.022;12.114;2022-07-29T09:11:06;97550.56;;;33.00;51.21
18795;BME280;29610;49.022;12.114;2022-07-29T09:13:34;97548.34;;;33.54;50.48
18795;BME280;29610;49.022;12.114;2022-07-29T09:16:11;97549.16;;;33.78;49.09
18795;BME280;29610;49.022;12.114;2022-07-29T09:19:00;97552.56;;;33.59;49.58
18795;BME280;29610;49.022;12.114;2022-07-29T09:21:40;97554.28;;;33.56;49.16
18795;BME280;29610;49.022;12.114;2022-07-29T09:24:39;97549.53;;;33.62;48.55
18795;BME280;29610;49.022;12.114;2022-07-29T09:27:20;97552.75;;;33.46;49.26
18795;BME280;29610;49.022;12.114;2022-07-29T09:29:58;97548.56;;;33.74;46.94
18795;BME280;29610;49.022;12.114;2022-07-29T09:32:28;97550.72;;;34.27;45.83
18795;BME280;29610;49.022;12.114;2022-07-29T09:35:18;97550.03;;;33.93;46.46
18795;BME280;29610;49.022;12.114;2022-07-29T09:37:48;97546.38;;;34.02;45.06
18795;BME280;29610;49.022;12.114;2022-07-29T09:40:18;97540.91;;;33.98;45.24
18795;BME280;29610;49.022;12.114;2022-07-29T09:42:48;97531.66;;;34.22;44.89
18795;BME280;29610;49.022;12.114;2022-07-29T09:45:31;97540.19;;;34.13;45.84
18795;BME280;29610;49.022;12.114;2022-07-29T09:48:14;97541.78;;;33.81;45.13
18795;BME280;29610;49.022;12.114;2022-07-29T09:50:45;97533.84;;;34.03;46.81
18795;BME280;29610;49.022;12.114;2022-07-29T09:53:31;97536.19;;;34.04;46.00
18795;BME280;29610;49.022;12.114;2022-07-29T09:56:00;97528.00;;;34.97;44.04
18795;BME280;29610;49.022;12.114;2022-07-29T09:58:29;97525.25;;;35.17;43.24
18795;BME280;29610;49.022;12.114;2022-07-29T10:01:01;97530.25;;;35.37;43.64
18795;BME280;29610;49.022;12.114;2022-07-29T10:03:52;97532.88;;;35.11;44.14
18795;BME280;29610;49.022;12.114;2022-07-29T10:06:21;97523.09;;;35.76;42.33
18795;BME280;29610;49.022;12.114;2022-07-29T10:08:49;97523.28;;;36.07;40.55
18795;BME280;29610;49.022;12.114;2022-07-29T10:11:19;97521.69;;;36.41;39.94
18795;BME280;29610;49.022;12.114;2022-07-29T10:13:48;97518.28;;;35.62;39.56
18795;BME280;29610;49.022;12.114;2022-07-29T10:16:17;97520.06;;;35.60;42.08
18795;BME280;29610;49.022;12.114;2022-07-29T10:18:46;97519.41;;;36.25;41.29
18795;BME280;29610;49.022;12.114;2022-07-29T10:21:19;97520.06;;;35.80;41.49
18795;BME280;29610;49.022;12.114;2022-07-29T10:24:02;97515.34;;;34.78;44.09
18795;BME280;29610;49.022;12.114;2022-07-29T10:26:32;97515.41;;;35.27;42.62
18795;BME280;29610;49.022;12.114;2022-07-29T10:29:01;97518.97;;;35.57;41.52
18795;BME280;29610;49.022;12.114;2022-07-29T10:31:39;97502.72;;;35.87;42.47
18795;BME280;29610;49.022;12.114;2022-07-29T10:34:23;97506.94;;;36.57;40.36
18795;BME280;29610;49.022;12.114;2022-07-29T10:37:11;97502.88;;;37.20;39.26
18795;BME280;29610;49.022;12.114;2022-07-29T10:39:59;97504.97;;;36.43;40.02
18795;BME280;29610;49.022;12.114;2022-07-29T10:42:52;97512.09;;;35.29;40.61
18795;BME280;29610;49.022;12.114;2022-07-29T10:45:22;97514.19;;;35.63;41.56
18795;BME280;29610;49.022;12.114;2022-07-29T10:48:04;97507.25;;;34.71;43.00
18795;BME280;29610;49.022;12.114;2022-07-29T10:50:54;97510.31;;;35.46;43.06
18795;BME280;29610;49.022;12.114;2022-07-29T10:53:48;97508.13;;;34.48;42.21
18795;BME280;29610;49.022;12.114;2022-07-29T10:56:28;97503.06;;;34.81;42.22
18795;BME280;29610;49.022;12.114;2022-07-29T10:59:25;97502.16;;;34.08;43.22
18795;BME280;29610;49.022;12.114;2022-07-29T11:02:41;97506.44;;;34.03;44.48
18795;BME280;29610;49.022;12.114;2022-07-29T11:05:13;97496.44;;;35.63;41.98
18795;BME280;29610;49.022;12.114;2022-07-29T11:08:24;97496.22;;;36.92;41.64
18795;BME280;29610;49.022;12.114;2022-07-29T11:11:30;97480.16;;;37.46;37.10
18795;BME280;29610;49.022;12.114;2022-07-29T11:14:01;97490.69;;;37.76;38.24
18795;BME280;29610;49.022;12.114;2022-07-29T11:17:02;97492.75;;;35.91;40.27
18795;BME280;29610;49.022;12.114;2022-07-29T11:19:34;97480.69;;;35.07;42.12
18795;BME280;29610;49.022;12.114;2022-07-29T11:22:09;97479.78;;;36.05;41.83
18795;BME280;29610;49.022;12.114;2022-07-29T11:24:44;97476.28;;;36.55;40.31
18795;BME280;29610;49.022;12.114;2022-07-29T11:27:19;97473.81;;;36.94;39.76
18795;BME280;29610;49.022;12.114;2022-07-29T11:29:55;97475.47;;;37.06;39.61
18795;BME280;29610;49.022;12.114;2022-07-29T11:32:44;97472.63;;;37.37;38.98
18795;BME280;29610;49.022;12.114;2022-07-29T11:35:18;97472.09;;;37.33;39.17
18795;BME280;29610;49.022;12.114;2022-07-29T11:38:25;97468.34;;;36.59;40.10
18795;BME280;29610;49.022;12.114;2022-07-29T11:41:22;97457.97;;;35.01;41.77
18795;BME280;29610;49.022;12.114;2022-07-29T11:43:53;97462.94;;;34.63;42.96
18795;BME280;29610;49.022;12.114;2022-07-29T11:46:43;97465.19;;;35.52;42.84
18795;BME280;29610;49.022;12.114;2022-07-29T11:49:18;97461.19;;;36.18;41.75
18795;BME280;29610;49.022;12.114;2022-07-29T11:52:02;97469.94;;;36.40;40.83
18795;BME280;29610;49.022;12.114;2022-07-29T11:54:34;97472.50;;;36.64;41.31
18795;BME280;29610;49.022;12.114;2022-07-29T11:57:24;97470.34;;;36.53;41.13
18795;BME280;29610;49.022;12.114;2022-07-29T12:00:07;97468.94;;;36.43;41.08
18795;BME280;29610;49.022;12.114;2022-07-29T12:02:40;97461.28;;;35.49;42.89
18795;BME280;29610;49.022;12.114;2022-07-29T12:05:15;97465.50;;;34.61;43.95
18795;BME280;29610;49.022;12.114;2022-07-29T12:08:12;97474.91;;;34.87;43.89
18795;BME280;29610;49.022;12.114;2022-07-29T12:10:42;97471.13;;;35.04;43.19
18795;BME280;29610;49.022;12.114;2022-07-29T12:13:13;97466.78;;;35.38;42.10
18795;BME280;29610;49.022;12.114;2022-07-29T12:15:51;97467.94;;;35.31;43.24
18795;BME280;29610;49.022;12.114;2022-07-29T12:18:20;97471.84;;;35.34;43.26
18795;BME280;29610;49.022;12.114;2022-07-29T12:20:57;97462.59;;;35.33;42.11
18795;BME280;29610;49.022;12.114;2022-07-29T12:23:30;97459.25;;;35.00;43.39
18795;BME280;29610;49.022;12.114;2022-07-29T12:26:04;97446.03;;;35.41;42.08
18795;BME280;29610;49.022;12.114;2022-07-29T12:28:50;97445.59;;;35.13;43.11
18795;BME280;29610;49.022;12.114;2022-07-29T12:31:23;97458.91;;;35.27;42.58
18795;BME280;29610;49.022;12.114;2022-07-29T12:34:12;97463.94;;;34.89;42.59
18795;BME280;29610;49.022;12.114;2022-07-29T12:36:42;97474.25;;;35.06;43.25
18795;BME280;29610;49.022;12.114;2022-07-29T12:39:14;97463.16;;;34.88;44.10
18795;BME280;29610;49.022;12.114;2022-07-29T12:41:46;97464.91;;;34.86;44.90
18795;BME280;29610;49.022;12.114;2022-07-29T12:44:16;97449.72;;;34.98;44.67
18795;BME280;29610;49.022;12.114;2022-07-29T12:46:44;97440.28;;;34.86;44.95
18795;BME280;29610;49.022;12.114;2022-07-29T12:49:21;97439.13;;;34.64;45.02
18795;BME280;29610;49.022;12.114;2022-07-29T12:51:52;97435.31;;;34.52;44.80
18795;BME280;29610;49.022;12.114;2022-07-29T12:54:21;97431.69;;;34.37;44.31
18795;BME280;29610;49.022;12.114;2022-07-29T12:56:59;97443.34;;;34.30;46.05
18795;BME280;29610;49.022;12.114;2022-07-29T12:59:29;97446.72;;;33.58;45.63
18795;BME280;29610;49.022;12.114;2022-07-29T13:01:57;97434.16;;;33.44;46.65
18795;BME280;29610;49.022;12.114;2022-07-29T13:04:30;97443.13;;;33.01;48.24
18795;BME280;29610;49.022;12.114;2022-07-29T13:07:00;97442.38;;;33.24;49.84
18795;BME280;29610;49.022;12.114;2022-07-29T13:09:40;97432.13;;;33.12;47.06
18795;BME280;29610;49.022;12.114;2022-07-29T13:12:10;97435.59;;;33.40;48.94
18795;BME280;29610;49.022;12.114;2022-07-29T13:14:43;97431.47;;;34.12;45.74
18795;BME280;29610;49.022;12.114;2022-07-29T13:17:15;97423.06;;;34.41;45.23
18795;BME280;29610;49.022;12.114;2022-07-29T13:19:46;97419.03;;;34.03;44.62
18795;BME280;29610;49.022;12.114;2022-07-29T13:22:19;97413.88;;;33.31;45.64
18795;BME280;29610;49.022;12.114;2022-07-29T13:24:50;97404.59;;;34.40;45.50